sensor_id;sensor_type;location;lat;lon;timestamp;P1;durP1;ratioP1;P2;durP2;ratioP2
12224;SDS011;6175;50.956;11.064;2023-03-23T00:00:52;1.17;;;0.90;;
12224;SDS011;6175;50.956;11.064;2023-03-23T00:03:20;1.00;;;0.90;;
12224;SDS011;6175;50.956;11.064;2023-03-23T00:05:47;2.15;;;1.00;;
12224;SDS011;6175;50.956;11.064;2023-03-23T00:08:17;1.42;;;1.10;;
12224;SDS011;6175;50.956;11.064;2023-03-23T00:10:49;2.20;;;1.00;;
12224;SDS011;6175;50.956;11.064;2023-03-23T00:13:17;2.17;;;1.20;;
12224;SDS011;6175;50.956;11.064;2023-03-23T00:15:45;1.75;;;1.13;;
12224;SDS011;6175;50.956;11.064;2023-03-23T00:18:13;1.45;;;1.30;;
12224;SDS011;6175;50.956;11.064;2023-03-23T00:20:46;1.30;;;1.20;;
12224;SDS011;6175;50.956;11.064;2023-03-23T00:23:13;2.92;;;1.17;;
12224;SDS011;6175;50.956;11.064;2023-03-23T00:25:44;4.43;;;1.40;;
12224;SDS011;6175;50.956;11.064;2023-03-23T00:28:12;1.17;;;1.08;;
12224;SDS011;6175;50.956;11.064;2023-03-23T00:30:40;1.35;;;0.98;;
12224;SDS011;6175;50.956;11.064;2023-03-23T00:33:09;2.05;;;1.13;;
12224;SDS011;6175;50.956;11.064;2023-03-23T00:35:38;1.40;;;1.00;;
12224;SDS011;6175;50.956;11.064;2023-03-23T00:38:05;1.70;;;1.10;;
12224;SDS011;6175;50.956;11.064;2023-03-23T00:40:33;1.98;;;1.20;;
12224;SDS011;6175;50.956;11.064;2023-03-23T00:43:01;1.58;;;1.00;;
12224;SDS011;6175;50.956;11.064;2023-03-23T00:45:31;1.08;;;1.00;;
12224;SDS011;6175;50.956;11.064;2023-03-23T00:47:59;1.42;;;0.90;;
12224;SDS011;6175;50.956;11.064;2023-03-23T00:50:30;1.90;;;1.15;;
12224;SDS011;6175;50.956;11.064;2023-03-23T00:52:57;1.63;;;1.08;;
12224;SDS011;6175;50.956;11.064;2023-03-23T00:55:24;1.17;;;1.00;;
12224;SDS011;6175;50.956;11.064;2023-03-23T00:57:51;1.10;;;1.00;;
12224;SDS011;6175;50.956;11.064;2023-03-23T01:00:19;2.13;;;1.00;;
12224;SDS011;6175;50.956;11.064;2023-03-23T01:02:48;1.92;;;1.20;;
12224;SDS011;6175;50.956;11.064;2023-03-23T01:05:17;2.08;;;1.20;;
12224;SDS011;6175;50.956;11.064;2023-03-23T01:07:44;1.48;;;1.10;;
12224;SDS011;6175;50.956;11.064;2023-03-23T01:10:12;1.10;;;1.00;;
12224;SDS011;6175;50.956;11.064;2023-03-23T01:12:41;0.90;;;0.85;;
12224;SDS011;6175;50.956;11.064;2023-03-23T01:15:09;1.15;;;1.05;;
12224;SDS011;6175;50.956;11.064;2023-03-23T01:17:37;1.20;;;1.10;;
12224;SDS011;6175;50.956;11.064;2023-03-23T01:20:07;1.17;;;1.05;;
12224;SDS011;6175;50.956;11.064;2023-03-23T01:22:34;1.30;;;1.08;;
12224;SDS011;6175;50.956;11.064;2023-03-23T01:25:02;1.20;;;1.10;;
12224;SDS011;6175;50.956;11.064;2023-03-23T01:27:29;1.90;;;1.15;;
12224;SDS011;6175;50.956;11.064;2023-03-23T01:29:56;1.75;;;1.10;;
12224;SDS011;6175;50.956;11.064;2023-03-23T01:32:24;1.77;;;1.00;;
12224;SDS011;6175;50.956;11.064;2023-03-23T01:34:51;1.50;;;1.20;;
12224;SDS011;6175;50.956;11.064;2023-03-23T01:37:19;1.10;;;1.00;;
12224;SDS011;6175;50.956;11.064;2023-03-23T01:39:51;1.80;;;1.30;;
12224;SDS011;6175;50.956;11.064;2023-03-23T01:42:18;1.98;;;1.50;;
12224;SDS011;6175;50.956;11.064;2023-03-23T01:47:31;1.77;;;1.50;;
12224;SDS011;6175;50.956;11.064;2023-03-23T01:49:58;1.30;;;1.20;;
12224;SDS011;6175;50.956;11.064;2023-03-23T01:52:28;2.17;;;1.30;;
12224;SDS011;6175;50.956;11.064;2023-03-23T01:54:55;2.65;;;1.27;;
12224;SDS011;6175;50.956;11.064;2023-03-23T01:57:23;3.63;;;1.20;;
12224;SDS011;6175;50.956;11.064;2023-03-23T01:59:53;2.00;;;1.33;;
12224;SDS011;6175;50.956;11.064;2023-03-23T02:02:23;1.77;;;1.30;;
12224;SDS011;6175;50.956;11.064;2023-03-23T02:04:51;1.77;;;1.40;;
12224;SDS011;6175;50.956;11.064;2023-03-23T02:07:23;3.35;;;1.55;;
12224;SDS011;6175;50.956;11.064;2023-03-23T02:09:51;1.30;;;1.20;;
12224;SDS011;6175;50.956;11.064;2023-03-23T02:12:19;3.40;;;1.25;;
12224;SDS011;6175;50.956;11.064;2023-03-23T02:14:46;3.00;;;1.42;;
12224;SDS011;6175;50.956;11.064;2023-03-23T02:17:15;1.52;;;1.30;;
12224;SDS011;6175;50.956;11.064;2023-03-23T02:19:58;1.75;;;1.40;;
12224;SDS011;6175;50.956;11.064;2023-03-23T02:22:36;3.20;;;1.48;;
12224;SDS011;6175;50.956;11.064;2023-03-23T02:28:28;1.25;;;1.15;;
12224;SDS011;6175;50.956;11.064;2023-03-23T02:31:06;1.40;;;1.30;;
12224;SDS011;6175;50.956;11.064;2023-03-23T02:33:41;2.05;;;1.15;;
12224;SDS011;6175;50.956;11.064;2023-03-23T02:36:12;1.42;;;1.33;;
12224;SDS011;6175;50.956;11.064;2023-03-23T02:38:41;1.40;;;1.30;;
12224;SDS011;6175;50.956;11.064;2023-03-23T02:41:10;2.85;;;1.60;;
12224;SDS011;6175;50.956;11.064;2023-03-23T02:43:39;1.27;;;1.17;;
12224;SDS011;6175;50.956;11.064;2023-03-23T02:46:08;2.05;;;1.40;;
12224;SDS011;6175;50.956;11.064;2023-03-23T02:48:35;1.40;;;1.30;;
12224;SDS011;6175;50.956;11.064;2023-03-23T02:51:05;2.40;;;1.30;;
12224;SDS011;6175;50.956;11.064;2023-03-23T02:53:34;1.95;;;1.50;;
12224;SDS011;6175;50.956;11.064;2023-03-23T02:56:06;1.88;;;1.48;;
12224;SDS011;6175;50.956;11.064;2023-03-23T02:58:35;2.70;;;1.50;;
12224;SDS011;6175;50.956;11.064;2023-03-23T03:03:49;2.20;;;2.00;;
12224;SDS011;6175;50.956;11.064;2023-03-23T03:06:21;1.80;;;1.45;;
12224;SDS011;6175;50.956;11.064;2023-03-23T03:08:54;3.35;;;1.60;;
12224;SDS011;6175;50.956;11.064;2023-03-23T03:11:27;2.95;;;1.50;;
12224;SDS011;6175;50.956;11.064;2023-03-23T03:13:56;1.95;;;1.50;;
12224;SDS011;6175;50.956;11.064;2023-03-23T03:16:27;1.70;;;1.38;;
12224;SDS011;6175;50.956;11.064;2023-03-23T03:18:56;1.92;;;1.60;;
12224;SDS011;6175;50.956;11.064;2023-03-23T03:21:27;1.58;;;1.33;;
12224;SDS011;6175;50.956;11.064;2023-03-23T03:23:55;1.45;;;1.35;;
12224;SDS011;6175;50.956;11.064;2023-03-23T03:26:24;1.98;;;1.45;;
12224;SDS011;6175;50.956;11.064;2023-03-23T03:28:52;2.20;;;1.70;;
12224;SDS011;6175;50.956;11.064;2023-03-23T03:31:20;1.48;;;1.35;;
12224;SDS011;6175;50.956;11.064;2023-03-23T03:33:48;1.45;;;1.20;;
12224;SDS011;6175;50.956;11.064;2023-03-23T03:36:17;1.67;;;1.20;;
12224;SDS011;6175;50.956;11.064;2023-03-23T03:38:47;2.53;;;1.60;;
12224;SDS011;6175;50.956;11.064;2023-03-23T03:41:15;1.83;;;1.50;;
12224;SDS011;6175;50.956;11.064;2023-03-23T03:43:42;1.52;;;1.30;;
12224;SDS011;6175;50.956;11.064;2023-03-23T03:46:10;1.73;;;1.42;;
12224;SDS011;6175;50.956;11.064;2023-03-23T03:48:37;1.88;;;1.38;;
12224;SDS011;6175;50.956;11.064;2023-03-23T03:51:04;1.30;;;1.20;;
12224;SDS011;6175;50.956;11.064;2023-03-23T03:53:31;1.83;;;1.40;;
12224;SDS011;6175;50.956;11.064;2023-03-23T03:56:00;1.38;;;1.27;;
12224;SDS011;6175;50.956;11.064;2023-03-23T03:58:27;1.95;;;1.55;;
12224;SDS011;6175;50.956;11.064;2023-03-23T04:00:56;1.50;;;1.40;;
12224;SDS011;6175;50.956;11.064;2023-03-23T04:03:24;1.92;;;1.23;;
12224;SDS011;6175;50.956;11.064;2023-03-23T04:05:51;2.53;;;1.50;;
12224;SDS011;6175;50.956;11.064;2023-03-23T04:08:19;1.15;;;1.08;;
12224;SDS011;6175;50.956;11.064;2023-03-23T04:10:47;1.45;;;1.30;;
12224;SDS011;6175;50.956;11.064;2023-03-23T04:13:15;1.25;;;1.15;;
12224;SDS011;6175;50.956;11.064;2023-03-23T04:15:43;1.70;;;1.60;;
12224;SDS011;6175;50.956;11.064;2023-03-23T04:18:10;1.58;;;1.40;;
12224;SDS011;6175;50.956;11.064;2023-03-23T04:20:40;1.30;;;1.20;;
12224;SDS011;6175;50.956;11.064;2023-03-23T04:23:07;2.15;;;1.40;;
12224;SDS011;6175;50.956;11.064;2023-03-23T04:25:34;2.35;;;1.20;;
12224;SDS011;6175;50.956;11.064;2023-03-23T04:28:02;1.25;;;1.15;;
12224;SDS011;6175;50.956;11.064;2023-03-23T04:30:30;1.75;;;1.33;;
12224;SDS011;6175;50.956;11.064;2023-03-23T04:32:58;1.30;;;1.20;;
12224;SDS011;6175;50.956;11.064;2023-03-23T04:35:26;3.38;;;1.40;;
12224;SDS011;6175;50.956;11.064;2023-03-23T04:37:54;1.40;;;1.30;;
12224;SDS011;6175;50.956;11.064;2023-03-23T04:40:22;1.27;;;1.17;;
12224;SDS011;6175;50.956;11.064;2023-03-23T04:42:50;1.42;;;1.30;;
12224;SDS011;6175;50.956;11.064;2023-03-23T04:45:22;1.60;;;1.45;;
12224;SDS011;6175;50.956;11.064;2023-03-23T04:47:51;1.38;;;1.30;;
12224;SDS011;6175;50.956;11.064;2023-03-23T04:50:23;1.98;;;1.42;;
12224;SDS011;6175;50.956;11.064;2023-03-23T04:52:51;1.38;;;1.20;;
12224;SDS011;6175;50.956;11.064;2023-03-23T04:55:21;1.15;;;1.10;;
12224;SDS011;6175;50.956;11.064;2023-03-23T04:57:49;1.75;;;1.13;;
12224;SDS011;6175;50.956;11.064;2023-03-23T05:00:16;2.60;;;1.40;;
12224;SDS011;6175;50.956;11.064;2023-03-23T05:02:46;1.25;;;1.13;;
12224;SDS011;6175;50.956;11.064;2023-03-23T05:05:18;1.77;;;1.35;;
12224;SDS011;6175;50.956;11.064;2023-03-23T05:07:46;1.20;;;1.10;;
12224;SDS011;6175;50.956;11.064;2023-03-23T05:10:14;2.13;;;1.40;;
12224;SDS011;6175;50.956;11.064;2023-03-23T05:12:42;1.30;;;1.20;;
12224;SDS011;6175;50.956;11.064;2023-03-23T05:15:10;2.03;;;1.10;;
12224;SDS011;6175;50.956;11.064;2023-03-23T05:17:38;2.05;;;1.30;;
12224;SDS011;6175;50.956;11.064;2023-03-23T05:20:09;1.75;;;1.38;;
12224;SDS011;6175;50.956;11.064;2023-03-23T05:22:38;1.13;;;1.10;;
12224;SDS011;6175;50.956;11.064;2023-03-23T05:25:06;1.17;;;1.02;;
12224;SDS011;6175;50.956;11.064;2023-03-23T05:27:34;2.78;;;1.20;;
12224;SDS011;6175;50.956;11.064;2023-03-23T05:30:02;1.25;;;1.15;;
12224;SDS011;6175;50.956;11.064;2023-03-23T05:32:29;1.40;;;1.30;;
12224;SDS011;6175;50.956;11.064;2023-03-23T05:34:57;2.58;;;1.20;;
12224;SDS011;6175;50.956;11.064;2023-03-23T05:37:24;1.50;;;1.27;;
12224;SDS011;6175;50.956;11.064;2023-03-23T05:39:55;1.20;;;1.15;;
12224;SDS011;6175;50.956;11.064;2023-03-23T05:42:23;1.10;;;1.10;;
12224;SDS011;6175;50.956;11.064;2023-03-23T05:44:50;3.38;;;1.23;;
12224;SDS011;6175;50.956;11.064;2023-03-23T05:47:18;1.15;;;1.05;;
12224;SDS011;6175;50.956;11.064;2023-03-23T05:49:45;1.45;;;1.20;;
12224;SDS011;6175;50.956;11.064;2023-03-23T05:52:12;1.60;;;1.30;;
12224;SDS011;6175;50.956;11.064;2023-03-23T05:54:40;1.98;;;1.30;;
12224;SDS011;6175;50.956;11.064;2023-03-23T05:57:08;1.17;;;1.08;;
12224;SDS011;6175;50.956;11.064;2023-03-23T05:59:36;1.98;;;1.45;;
12224;SDS011;6175;50.956;11.064;2023-03-23T06:02:03;2.28;;;1.20;;
12224;SDS011;6175;50.956;11.064;2023-03-23T06:04:30;1.30;;;1.20;;
12224;SDS011;6175;50.956;11.064;2023-03-23T06:06:58;1.20;;;1.10;;
12224;SDS011;6175;50.956;11.064;2023-03-23T06:09:26;3.85;;;1.27;;
12224;SDS011;6175;50.956;11.064;2023-03-23T06:11:53;1.20;;;1.10;;
12224;SDS011;6175;50.956;11.064;2023-03-23T06:14:21;1.90;;;1.20;;
12224;SDS011;6175;50.956;11.064;2023-03-23T06:16:48;1.13;;;1.02;;
12224;SDS011;6175;50.956;11.064;2023-03-23T06:19:16;1.40;;;1.20;;
12224;SDS011;6175;50.956;11.064;2023-03-23T06:21:43;2.15;;;1.35;;
12224;SDS011;6175;50.956;11.064;2023-03-23T06:24:10;2.47;;;1.30;;
12224;SDS011;6175;50.956;11.064;2023-03-23T06:26:38;1.73;;;1.50;;
12224;SDS011;6175;50.956;11.064;2023-03-23T06:29:08;2.95;;;1.42;;
12224;SDS011;6175;50.956;11.064;2023-03-23T06:31:38;1.77;;;1.35;;
12224;SDS011;6175;50.956;11.064;2023-03-23T06:34:06;2.38;;;1.20;;
12224;SDS011;6175;50.956;11.064;2023-03-23T06:36:34;1.50;;;1.40;;
12224;SDS011;6175;50.956;11.064;2023-03-23T06:39:02;2.17;;;1.67;;
12224;SDS011;6175;50.956;11.064;2023-03-23T06:41:30;1.63;;;1.45;;
12224;SDS011;6175;50.956;11.064;2023-03-23T06:43:57;1.67;;;1.58;;
12224;SDS011;6175;50.956;11.064;2023-03-23T06:46:25;1.67;;;1.40;;
12224;SDS011;6175;50.956;11.064;2023-03-23T06:48:53;1.65;;;1.55;;
12224;SDS011;6175;50.956;11.064;2023-03-23T06:51:22;1.42;;;1.33;;
12224;SDS011;6175;50.956;11.064;2023-03-23T06:53:49;1.40;;;1.30;;
12224;SDS011;6175;50.956;11.064;2023-03-23T06:56:16;1.63;;;1.40;;
12224;SDS011;6175;50.956;11.064;2023-03-23T06:58:43;2.53;;;1.58;;
12224;SDS011;6175;50.956;11.064;2023-03-23T07:01:11;1.58;;;1.48;;
12224;SDS011;6175;50.956;11.064;2023-03-23T07:03:40;2.88;;;1.83;;
12224;SDS011;6175;50.956;11.064;2023-03-23T07:06:10;1.60;;;1.50;;
12224;SDS011;6175;50.956;11.064;2023-03-23T07:08:37;1.88;;;1.35;;
12224;SDS011;6175;50.956;11.064;2023-03-23T07:11:04;1.55;;;1.45;;
12224;SDS011;6175;50.956;11.064;2023-03-23T07:13:32;1.40;;;1.30;;
12224;SDS011;6175;50.956;11.064;2023-03-23T07:16:00;1.70;;;1.60;;
12224;SDS011;6175;50.956;11.064;2023-03-23T07:18:28;1.65;;;1.55;;
12224;SDS011;6175;50.956;11.064;2023-03-23T07:20:55;2.58;;;1.65;;
12224;SDS011;6175;50.956;11.064;2023-03-23T07:23:24;2.33;;;1.60;;
12224;SDS011;6175;50.956;11.064;2023-03-23T07:25:51;2.45;;;1.60;;
12224;SDS011;6175;50.956;11.064;2023-03-23T07:28:18;2.42;;;1.60;;
12224;SDS011;6175;50.956;11.064;2023-03-23T07:30:46;1.80;;;1.60;;
12224;SDS011;6175;50.956;11.064;2023-03-23T07:33:13;2.58;;;1.92;;
12224;SDS011;6175;50.956;11.064;2023-03-23T07:35:40;2.15;;;1.88;;
12224;SDS011;6175;50.956;11.064;2023-03-23T07:38:07;1.65;;;1.55;;
12224;SDS011;6175;50.956;11.064;2023-03-23T07:40:36;2.05;;;1.90;;
12224;SDS011;6175;50.956;11.064;2023-03-23T07:43:03;2.72;;;1.70;;
12224;SDS011;6175;50.956;11.064;2023-03-23T07:45:31;2.35;;;1.90;;
12224;SDS011;6175;50.956;11.064;2023-03-23T07:47:58;2.58;;;1.70;;
12224;SDS011;6175;50.956;11.064;2023-03-23T07:50:26;2.38;;;1.60;;
12224;SDS011;6175;50.956;11.064;2023-03-23T07:52:54;2.47;;;1.80;;
12224;SDS011;6175;50.956;11.064;2023-03-23T07:55:21;1.60;;;1.50;;
12224;SDS011;6175;50.956;11.064;2023-03-23T07:57:51;2.22;;;1.73;;
12224;SDS011;6175;50.956;11.064;2023-03-23T08:00:20;1.85;;;1.65;;
12224;SDS011;6175;50.956;11.064;2023-03-23T08:02:49;3.83;;;1.67;;
12224;SDS011;6175;50.956;11.064;2023-03-23T08:05:17;2.80;;;1.88;;
12224;SDS011;6175;50.956;11.064;2023-03-23T08:07:45;1.55;;;1.45;;
12224;SDS011;6175;50.956;11.064;2023-03-23T08:10:14;1.73;;;1.55;;
12224;SDS011;6175;50.956;11.064;2023-03-23T08:12:43;2.35;;;1.67;;
12224;SDS011;6175;50.956;11.064;2023-03-23T08:15:12;1.70;;;1.60;;
12224;SDS011;6175;50.956;11.064;2023-03-23T08:17:40;1.70;;;1.60;;
12224;SDS011;6175;50.956;11.064;2023-03-23T08:20:09;1.60;;;1.50;;
12224;SDS011;6175;50.956;11.064;2023-03-23T08:22:37;1.65;;;1.40;;
12224;SDS011;6175;50.956;11.064;2023-03-23T08:25:05;2.50;;;1.48;;
12224;SDS011;6175;50.956;11.064;2023-03-23T08:27:34;1.95;;;1.60;;
12224;SDS011;6175;50.956;11.064;2023-03-23T08:30:01;1.77;;;1.42;;
12224;SDS011;6175;50.956;11.064;2023-03-23T08:32:29;2.42;;;1.40;;
12224;SDS011;6175;50.956;11.064;2023-03-23T08:34:57;2.67;;;1.50;;
12224;SDS011;6175;50.956;11.064;2023-03-23T08:37:24;4.20;;;1.27;;
12224;SDS011;6175;50.956;11.064;2023-03-23T08:39:51;2.72;;;1.50;;
12224;SDS011;6175;50.956;11.064;2023-03-23T08:42:18;0.82;;;0.82;;
12224;SDS011;6175;50.956;11.064;2023-03-23T08:44:46;1.67;;;1.00;;
12224;SDS011;6175;50.956;11.064;2023-03-23T08:47:13;1.30;;;1.20;;
12224;SDS011;6175;50.956;11.064;2023-03-23T08:49:42;1.33;;;1.23;;
12224;SDS011;6175;50.956;11.064;2023-03-23T08:52:10;1.77;;;1.00;;
12224;SDS011;6175;50.956;11.064;2023-03-23T08:54:38;1.23;;;1.08;;
12224;SDS011;6175;50.956;11.064;2023-03-23T08:57:05;1.58;;;1.48;;
12224;SDS011;6175;50.956;11.064;2023-03-23T08:59:33;1.13;;;1.02;;
12224;SDS011;6175;50.956;11.064;2023-03-23T09:02:00;1.17;;;1.00;;
12224;SDS011;6175;50.956;11.064;2023-03-23T09:04:27;1.05;;;1.00;;
12224;SDS011;6175;50.956;11.064;2023-03-23T09:06:56;2.38;;;1.00;;
12224;SDS011;6175;50.956;11.064;2023-03-23T09:09:24;1.23;;;1.10;;
12224;SDS011;6175;50.956;11.064;2023-03-23T09:11:52;2.08;;;1.15;;
12224;SDS011;6175;50.956;11.064;2023-03-23T09:14:20;1.10;;;1.08;;
12224;SDS011;6175;50.956;11.064;2023-03-23T09:16:47;1.60;;;1.13;;
12224;SDS011;6175;50.956;11.064;2023-03-23T09:19:14;1.98;;;1.30;;
12224;SDS011;6175;50.956;11.064;2023-03-23T09:21:41;1.15;;;1.05;;
12224;SDS011;6175;50.956;11.064;2023-03-23T09:24:11;1.40;;;1.30;;
12224;SDS011;6175;50.956;11.064;2023-03-23T09:26:39;3.17;;;1.38;;
12224;SDS011;6175;50.956;11.064;2023-03-23T09:29:06;2.85;;;1.75;;
12224;SDS011;6175;50.956;11.064;2023-03-23T09:31:34;3.75;;;1.40;;
12224;SDS011;6175;50.956;11.064;2023-03-23T09:34:01;1.60;;;1.25;;
12224;SDS011;6175;50.956;11.064;2023-03-23T09:36:29;1.92;;;1.20;;
12224;SDS011;6175;50.956;11.064;2023-03-23T09:38:57;1.17;;;1.02;;
12224;SDS011;6175;50.956;11.064;2023-03-23T09:41:36;1.02;;;1.00;;
12224;SDS011;6175;50.956;11.064;2023-03-23T09:44:09;0.90;;;0.90;;
12224;SDS011;6175;50.956;11.064;2023-03-23T09:46:42;1.52;;;0.90;;
12224;SDS011;6175;50.956;11.064;2023-03-23T09:49:11;1.77;;;1.08;;
12224;SDS011;6175;50.956;11.064;2023-03-23T09:51:42;1.45;;;1.10;;
12224;SDS011;6175;50.956;11.064;2023-03-23T09:54:11;1.58;;;1.33;;
12224;SDS011;6175;50.956;11.064;2023-03-23T09:56:41;1.30;;;1.20;;
12224;SDS011;6175;50.956;11.064;2023-03-23T09:59:11;1.67;;;1.20;;
12224;SDS011;6175;50.956;11.064;2023-03-23T10:01:40;1.45;;;1.08;;
12224;SDS011;6175;50.956;11.064;2023-03-23T10:04:10;2.20;;;1.17;;
12224;SDS011;6175;50.956;11.064;2023-03-23T10:06:39;1.02;;;1.00;;
12224;SDS011;6175;50.956;11.064;2023-03-23T10:09:08;2.33;;;1.30;;
12224;SDS011;6175;50.956;11.064;2023-03-23T10:11:44;1.10;;;1.00;;
12224;SDS011;6175;50.956;11.064;2023-03-23T10:14:23;1.98;;;1.10;;
12224;SDS011;6175;50.956;11.064;2023-03-23T10:16:53;1.27;;;1.17;;
12224;SDS011;6175;50.956;11.064;2023-03-23T10:19:24;1.02;;;0.93;;
12224;SDS011;6175;50.956;11.064;2023-03-23T10:21:55;0.75;;;0.75;;
12224;SDS011;6175;50.956;11.064;2023-03-23T10:24:25;1.30;;;1.00;;
12224;SDS011;6175;50.956;11.064;2023-03-23T10:27:00;1.55;;;1.23;;
12224;SDS011;6175;50.956;11.064;2023-03-23T10:29:35;1.25;;;1.10;;
12224;SDS011;6175;50.956;11.064;2023-03-23T10:32:04;1.48;;;1.15;;
12224;SDS011;6175;50.956;11.064;2023-03-23T10:34:39;1.33;;;1.23;;
12224;SDS011;6175;50.956;11.064;2023-03-23T10:37:10;0.90;;;0.90;;
12224;SDS011;6175;50.956;11.064;2023-03-23T10:39:41;1.20;;;1.15;;
12224;SDS011;6175;50.956;11.064;2023-03-23T10:42:12;1.83;;;1.20;;
12224;SDS011;6175;50.956;11.064;2023-03-23T10:44:39;1.58;;;0.95;;
12224;SDS011;6175;50.956;11.064;2023-03-23T10:47:08;1.33;;;1.17;;
12224;SDS011;6175;50.956;11.064;2023-03-23T10:49:37;1.45;;;1.08;;
12224;SDS011;6175;50.956;11.064;2023-03-23T10:52:09;1.55;;;1.17;;
12224;SDS011;6175;50.956;11.064;2023-03-23T10:54:38;1.30;;;1.00;;
12224;SDS011;6175;50.956;11.064;2023-03-23T10:57:17;1.17;;;1.08;;
12224;SDS011;6175;50.956;11.064;2023-03-23T10:59:47;1.73;;;1.00;;
12224;SDS011;6175;50.956;11.064;2023-03-23T11:02:16;1.88;;;1.23;;
12224;SDS011;6175;50.956;11.064;2023-03-23T11:04:46;0.93;;;0.93;;
12224;SDS011;6175;50.956;11.064;2023-03-23T11:07:16;1.10;;;1.00;;
12224;SDS011;6175;50.956;11.064;2023-03-23T11:09:51;1.92;;;1.00;;
12224;SDS011;6175;50.956;11.064;2023-03-23T11:12:20;2.28;;;1.10;;
12224;SDS011;6175;50.956;11.064;2023-03-23T11:14:48;0.90;;;0.90;;
12224;SDS011;6175;50.956;11.064;2023-03-23T11:17:20;1.15;;;1.00;;
12224;SDS011;6175;50.956;11.064;2023-03-23T11:19:47;1.13;;;0.90;;
12224;SDS011;6175;50.956;11.064;2023-03-23T11:22:15;0.82;;;0.82;;
12224;SDS011;6175;50.956;11.064;2023-03-23T11:24:44;2.00;;;1.00;;
12224;SDS011;6175;50.956;11.064;2023-03-23T11:27:12;1.75;;;0.75;;
12224;SDS011;6175;50.956;11.064;2023-03-23T11:29:45;1.30;;;0.80;;
12224;SDS011;6175;50.956;11.064;2023-03-23T11:32:15;0.80;;;0.80;;
12224;SDS011;6175;50.956;11.064;2023-03-23T11:34:43;1.90;;;1.05;;
12224;SDS011;6175;50.956;11.064;2023-03-23T11:37:13;1.13;;;0.90;;
12224;SDS011;6175;50.956;11.064;2023-03-23T11:39:46;1.33;;;0.90;;
12224;SDS011;6175;50.956;11.064;2023-03-23T11:42:17;1.30;;;1.10;;
12224;SDS011;6175;50.956;11.064;2023-03-23T11:44:46;1.25;;;1.15;;
12224;SDS011;6175;50.956;11.064;2023-03-23T11:47:16;1.42;;;1.08;;
12224;SDS011;6175;50.956;11.064;2023-03-23T11:49:45;2.72;;;1.10;;
12224;SDS011;6175;50.956;11.064;2023-03-23T11:52:16;1.20;;;1.10;;
12224;SDS011;6175;50.956;11.064;2023-03-23T11:54:50;1.13;;;1.02;;
12224;SDS011;6175;50.956;11.064;2023-03-23T11:57:19;0.88;;;0.88;;
12224;SDS011;6175;50.956;11.064;2023-03-23T11:59:48;2.03;;;1.17;;
12224;SDS011;6175;50.956;11.064;2023-03-23T12:02:35;0.93;;;0.93;;
12224;SDS011;6175;50.956;11.064;2023-03-23T12:05:30;1.73;;;1.10;;
12224;SDS011;6175;50.956;11.064;2023-03-23T12:08:08;1.48;;;1.10;;
12224;SDS011;6175;50.956;11.064;2023-03-23T12:10:40;1.63;;;1.13;;
12224;SDS011;6175;50.956;11.064;2023-03-23T12:13:13;0.80;;;0.80;;
12224;SDS011;6175;50.956;11.064;2023-03-23T12:15:45;1.00;;;0.90;;
12224;SDS011;6175;50.956;11.064;2023-03-23T12:18:17;0.98;;;0.90;;
12224;SDS011;6175;50.956;11.064;2023-03-23T12:20:55;1.85;;;0.88;;
12224;SDS011;6175;50.956;11.064;2023-03-23T12:23:25;1.92;;;0.98;;
12224;SDS011;6175;50.956;11.064;2023-03-23T12:26:05;1.02;;;1.00;;
12224;SDS011;6175;50.956;11.064;2023-03-23T12:28:38;1.10;;;0.98;;
12224;SDS011;6175;50.956;11.064;2023-03-23T12:34:01;1.95;;;1.00;;
12224;SDS011;6175;50.956;11.064;2023-03-23T12:36:35;3.13;;;1.33;;
12224;SDS011;6175;50.956;11.064;2023-03-23T12:39:10;2.30;;;0.90;;
12224;SDS011;6175;50.956;11.064;2023-03-23T12:42:03;1.48;;;0.90;;
12224;SDS011;6175;50.956;11.064;2023-03-23T12:44:35;1.23;;;0.98;;
12224;SDS011;6175;50.956;11.064;2023-03-23T12:49:54;1.35;;;0.85;;
12224;SDS011;6175;50.956;11.064;2023-03-23T12:52:25;1.33;;;1.23;;
12224;SDS011;6175;50.956;11.064;2023-03-23T12:54:55;1.00;;;1.00;;
12224;SDS011;6175;50.956;11.064;2023-03-23T12:57:27;1.00;;;0.90;;
12224;SDS011;6175;50.956;11.064;2023-03-23T12:59:58;1.17;;;1.00;;
12224;SDS011;6175;50.956;11.064;2023-03-23T13:02:28;1.60;;;1.00;;
12224;SDS011;6175;50.956;11.064;2023-03-23T13:04:59;1.00;;;1.00;;
12224;SDS011;6175;50.956;11.064;2023-03-23T13:07:43;1.30;;;1.00;;
12224;SDS011;6175;50.956;11.064;2023-03-23T13:10:17;0.60;;;0.60;;
12224;SDS011;6175;50.956;11.064;2023-03-23T13:12:47;1.38;;;1.20;;
12224;SDS011;6175;50.956;11.064;2023-03-23T13:15:18;1.70;;;1.60;;
12224;SDS011;6175;50.956;11.064;2023-03-23T13:17:49;1.88;;;1.02;;
12224;SDS011;6175;50.956;11.064;2023-03-23T13:20:27;0.80;;;0.80;;
12224;SDS011;6175;50.956;11.064;2023-03-23T13:22:58;0.90;;;0.90;;
12224;SDS011;6175;50.956;11.064;2023-03-23T13:25:47;0.88;;;0.88;;
12224;SDS011;6175;50.956;11.064;2023-03-23T13:28:15;5.28;;;1.10;;
12224;SDS011;6175;50.956;11.064;2023-03-23T13:30:59;1.20;;;0.80;;
12224;SDS011;6175;50.956;11.064;2023-03-23T13:33:34;0.88;;;0.88;;
12224;SDS011;6175;50.956;11.064;2023-03-23T13:36:04;1.05;;;0.85;;
12224;SDS011;6175;50.956;11.064;2023-03-23T13:38:33;0.90;;;0.90;;
12224;SDS011;6175;50.956;11.064;2023-03-23T13:41:05;1.63;;;1.08;;
12224;SDS011;6175;50.956;11.064;2023-03-23T13:43:35;0.93;;;0.85;;
12224;SDS011;6175;50.956;11.064;2023-03-23T13:46:07;1.92;;;1.00;;
12224;SDS011;6175;50.956;11.064;2023-03-23T13:48:40;3.15;;;1.05;;
12224;SDS011;6175;50.956;11.064;2023-03-23T13:53:51;1.35;;;0.70;;
12224;SDS011;6175;50.956;11.064;2023-03-23T13:56:19;1.65;;;0.70;;
12224;SDS011;6175;50.956;11.064;2023-03-23T13:58:47;0.88;;;0.80;;
12224;SDS011;6175;50.956;11.064;2023-03-23T14:01:17;1.40;;;0.68;;
12224;SDS011;6175;50.956;11.064;2023-03-23T14:03:47;1.00;;;0.80;;
12224;SDS011;6175;50.956;11.064;2023-03-23T14:06:16;1.02;;;0.90;;
12224;SDS011;6175;50.956;11.064;2023-03-23T14:08:45;0.75;;;0.75;;
12224;SDS011;6175;50.956;11.064;2023-03-23T14:11:16;1.38;;;0.77;;
12224;SDS011;6175;50.956;11.064;2023-03-23T14:13:46;1.80;;;0.90;;
12224;SDS011;6175;50.956;11.064;2023-03-23T14:16:19;1.27;;;0.90;;
12224;SDS011;6175;50.956;11.064;2023-03-23T14:18:53;1.40;;;1.30;;
12224;SDS011;6175;50.956;11.064;2023-03-23T14:21:22;3.08;;;1.00;;
12224;SDS011;6175;50.956;11.064;2023-03-23T14:23:49;1.80;;;0.80;;
12224;SDS011;6175;50.956;11.064;2023-03-23T14:26:21;0.90;;;0.80;;
12224;SDS011;6175;50.956;11.064;2023-03-23T14:28:50;0.80;;;0.80;;
12224;SDS011;6175;50.956;11.064;2023-03-23T14:31:18;1.65;;;1.00;;
12224;SDS011;6175;50.956;11.064;2023-03-23T14:33:46;0.80;;;0.80;;
12224;SDS011;6175;50.956;11.064;2023-03-23T14:36:14;1.67;;;0.90;;
12224;SDS011;6175;50.956;11.064;2023-03-23T14:38:41;2.10;;;1.02;;
12224;SDS011;6175;50.956;11.064;2023-03-23T14:41:10;1.27;;;0.90;;
12224;SDS011;6175;50.956;11.064;2023-03-23T14:43:39;1.73;;;0.98;;
12224;SDS011;6175;50.956;11.064;2023-03-23T14:46:07;1.10;;;1.00;;
12224;SDS011;6175;50.956;11.064;2023-03-23T14:48:36;1.00;;;0.90;;
12224;SDS011;6175;50.956;11.064;2023-03-23T14:51:05;0.93;;;0.93;;
12224;SDS011;6175;50.956;11.064;2023-03-23T14:53:33;1.00;;;0.90;;
12224;SDS011;6175;50.956;11.064;2023-03-23T14:56:03;0.80;;;0.80;;
12224;SDS011;6175;50.956;11.064;2023-03-23T14:58:33;1.33;;;0.80;;
12224;SDS011;6175;50.956;11.064;2023-03-23T15:01:03;1.20;;;1.10;;
12224;SDS011;6175;50.956;11.064;2023-03-23T15:03:32;1.70;;;1.10;;
12224;SDS011;6175;50.956;11.064;2023-03-23T15:06:03;0.70;;;0.70;;
12224;SDS011;6175;50.956;11.064;2023-03-23T15:08:31;0.77;;;0.77;;
12224;SDS011;6175;50.956;11.064;2023-03-23T15:11:04;1.27;;;1.00;;
12224;SDS011;6175;50.956;11.064;2023-03-23T15:13:34;3.78;;;0.88;;
12224;SDS011;6175;50.956;11.064;2023-03-23T15:16:04;1.65;;;0.93;;
12224;SDS011;6175;50.956;11.064;2023-03-23T15:18:37;1.20;;;1.13;;